createdAt,value
2022-07-29T00:02:15.738Z,3.80
2022-07-29T00:04:43.655Z,4.20
2022-07-29T00:07:11.717Z,3.03
2022-07-29T00:09:51.199Z,4.20
2022-07-29T00:12:26.265Z,3.50
2022-07-29T00:14:55.680Z,3.70
2022-07-29T00:17:23.806Z,3.40
2022-07-29T00:19:51.853Z,3.50
2022-07-29T00:22:19.779Z,3.93
2022-07-29T00:24:49.524Z,3.40
2022-07-29T00:27:17.450Z,4.03
2022-07-29T00:29:46.735Z,3.83
2022-07-29T00:32:14.673Z,3.80
2022-07-29T00:35:00.165Z,3.90
2022-07-29T00:37:28.019Z,3.70
2022-07-29T00:39:55.869Z,4.60
2022-07-29T00:42:23.583Z,8.53
2022-07-29T00:44:53.125Z,4.23
2022-07-29T00:47:21.022Z,4.10
2022-07-29T00:49:49.158Z,4.87
2022-07-29T00:52:17.484Z,4.37
2022-07-29T00:54:45.353Z,4.30
2022-07-29T00:57:14.481Z,4.07
2022-07-29T00:59:42.317Z,4.03
2022-07-29T01:02:11.522Z,4.20
2022-07-29T01:04:39.638Z,4.20
2022-07-29T01:07:07.899Z,4.03
2022-07-29T01:09:45.357Z,4.80
2022-07-29T01:12:17.225Z,4.67
2022-07-29T01:14:46.430Z,4.30
2022-07-29T01:17:22.134Z,4.80
2022-07-29T01:19:58.174Z,4.00
2022-07-29T01:22:37.424Z,4.53
2022-07-29T01:25:22.056Z,4.87
2022-07-29T01:28:10.335Z,4.60
2022-07-29T01:30:46.548Z,4.40
2022-07-29T01:33:33.470Z,4.43
2022-07-29T01:36:03.666Z,5.37
2022-07-29T01:38:31.763Z,5.17
2022-07-29T01:41:07.310Z,4.77
2022-07-29T01:43:41.133Z,4.93
2022-07-29T01:46:15.994Z,5.37
2022-07-29T01:48:48.203Z,5.40
2022-07-29T01:51:21.223Z,5.27
2022-07-29T01:53:56.513Z,5.13
2022-07-29T01:56:26.306Z,5.20
2022-07-29T01:58:55.402Z,4.53
2022-07-29T02:01:26.944Z,4.90
2022-07-29T02:03:56.382Z,4.60
2022-07-29T02:06:25.393Z,6.00
2022-07-29T02:08:55.079Z,4.80
2022-07-29T02:11:23.221Z,5.73
2022-07-29T02:13:54.537Z,4.73
2022-07-29T02:16:26.029Z,5.27
2022-07-29T02:18:56.023Z,4.90
2022-07-29T02:21:27.523Z,4.77
2022-07-29T02:23:56.598Z,6.00
2022-07-29T02:26:26.660Z,4.90
2022-07-29T02:28:57.590Z,5.37
2022-07-29T02:31:31.883Z,5.07
2022-07-29T02:34:00.712Z,5.80
2022-07-29T02:36:29.211Z,4.97
2022-07-29T02:39:01.581Z,4.87
2022-07-29T02:41:33.053Z,4.43
2022-07-29T02:44:05.787Z,5.20
2022-07-29T02:46:37.810Z,4.53
2022-07-29T02:49:11.502Z,4.60
2022-07-29T02:51:45.289Z,5.40
2022-07-29T02:54:21.852Z,4.53
2022-07-29T02:56:53.659Z,4.97
2022-07-29T02:59:27.025Z,4.20
2022-07-29T03:01:57.558Z,4.13
2022-07-29T03:04:29.580Z,4.10
2022-07-29T03:07:00.441Z,4.33
2022-07-29T03:09:29.751Z,5.87
2022-07-29T03:11:59.832Z,4.43
2022-07-29T03:14:28.699Z,4.63
2022-07-29T03:16:58.269Z,4.80
2022-07-29T03:19:26.154Z,4.60
2022-07-29T03:21:54.906Z,4.67
2022-07-29T03:24:34.177Z,4.30
2022-07-29T03:27:02.680Z,4.57
2022-07-29T03:29:33.039Z,4.13
2022-07-29T03:32:07.311Z,4.10
2022-07-29T03:34:37.758Z,4.17
2022-07-29T03:37:07.914Z,3.97
2022-07-29T03:39:40.726Z,4.03
2022-07-29T03:42:10.381Z,4.43
2022-07-29T03:44:40.023Z,3.97
2022-07-29T03:47:11.772Z,4.30
2022-07-29T03:49:41.505Z,4.40
2022-07-29T03:52:10.293Z,3.80
2022-07-29T03:54:38.145Z,4.87
2022-07-29T03:57:08.892Z,5.00
2022-07-29T03:59:37.639Z,4.70
2022-07-29T04:02:07.268Z,4.10
2022-07-29T04:04:37.464Z,5.03
2022-07-29T04:07:05.597Z,3.97
2022-07-29T04:09:33.754Z,4.27
2022-07-29T04:12:03.868Z,4.53
2022-07-29T04:14:33.697Z,3.83
2022-07-29T04:17:01.911Z,4.90
2022-07-29T04:19:29.638Z,4.50
2022-07-29T04:21:58.718Z,4.77
2022-07-29T04:24:26.704Z,4.87
2022-07-29T04:26:54.468Z,4.73
2022-07-29T04:29:22.178Z,4.53
2022-07-29T04:31:49.938Z,5.50
2022-07-29T04:34:17.924Z,8.00
2022-07-29T04:36:46.565Z,4.57
2022-07-29T04:39:20.666Z,5.20
2022-07-29T04:41:51.154Z,4.00
2022-07-29T04:44:20.436Z,5.20
2022-07-29T04:46:48.461Z,4.90
2022-07-29T04:49:16.800Z,4.40
2022-07-29T04:51:44.590Z,4.80
2022-07-29T04:54:12.351Z,5.00
2022-07-29T04:56:42.567Z,5.00
2022-07-29T04:59:10.346Z,5.33
2022-07-29T05:01:41.232Z,5.87
2022-07-29T05:04:09.003Z,5.43
2022-07-29T05:06:36.734Z,7.00
2022-07-29T05:09:04.533Z,6.50
2022-07-29T05:11:32.314Z,7.50
2022-07-29T05:14:01.466Z,5.93
2022-07-29T05:16:29.380Z,5.63
2022-07-29T05:18:57.099Z,5.20
2022-07-29T05:21:24.897Z,5.17
2022-07-29T05:23:52.765Z,5.03
2022-07-29T05:26:21.238Z,5.60
2022-07-29T05:28:48.946Z,5.77
2022-07-29T05:31:18.329Z,5.10
2022-07-29T05:33:46.710Z,6.03
2022-07-29T05:36:14.465Z,5.17
2022-07-29T05:38:42.249Z,5.57
2022-07-29T05:41:10.057Z,5.67
2022-07-29T05:43:38.055Z,5.50
2022-07-29T05:46:06.138Z,5.30
2022-07-29T05:48:35.308Z,5.90
2022-07-29T05:51:03.440Z,7.07
2022-07-29T05:53:31.230Z,5.43
2022-07-29T05:55:59.252Z,5.87
2022-07-29T05:58:27.092Z,6.83
2022-07-29T06:00:56.967Z,6.40
2022-07-29T06:03:24.623Z,7.30
2022-07-29T06:05:53.987Z,6.43
2022-07-29T06:08:22.008Z,7.00
2022-07-29T06:10:50.270Z,5.23
2022-07-29T06:13:17.957Z,7.20
2022-07-29T06:15:47.121Z,6.77
2022-07-29T06:18:15.100Z,6.33
2022-07-29T06:20:43.017Z,6.37
2022-07-29T06:23:12.308Z,6.17
2022-07-29T06:25:42.085Z,6.43
2022-07-29T06:28:10.086Z,7.27
2022-07-29T06:30:38.136Z,8.30
2022-07-29T06:33:06.457Z,6.43
2022-07-29T06:35:38.516Z,6.20
2022-07-29T06:38:31.392Z,7.60
2022-07-29T06:41:05.169Z,8.37
2022-07-29T06:43:35.434Z,8.73
2022-07-29T06:46:19.817Z,10.73
2022-07-29T06:48:48.889Z,12.30
2022-07-29T06:51:23.388Z,17.10
2022-07-29T06:54:00.195Z,19.30
2022-07-29T06:56:39.608Z,24.73
2022-07-29T06:59:09.759Z,27.77
2022-07-29T07:01:39.141Z,97.20
2022-07-29T07:04:07.127Z,133.55
2022-07-29T07:06:35.091Z,134.77
2022-07-29T07:09:03.087Z,216.63
2022-07-29T07:11:32.822Z,250.85
2022-07-29T07:14:03.862Z,228.13
2022-07-29T07:16:33.414Z,296.10
2022-07-29T07:19:01.957Z,338.08
2022-07-29T07:21:30.571Z,322.25
2022-07-29T07:23:59.170Z,422.63
2022-07-29T07:26:27.724Z,589.42
2022-07-29T07:28:57.449Z,615.20
2022-07-29T07:31:25.891Z,677.50
2022-07-29T07:33:54.608Z,661.10
2022-07-29T07:36:22.656Z,498.05
2022-07-29T07:38:50.662Z,456.38
2022-07-29T07:41:18.711Z,528.88
2022-07-29T07:43:46.606Z,570.63
2022-07-29T07:46:16.175Z,595.33
2022-07-29T07:48:44.029Z,621.78
2022-07-29T07:51:11.839Z,616.72
2022-07-29T07:53:39.820Z,584.28
2022-07-29T07:56:10.901Z,596.15
2022-07-29T07:58:39.986Z,575.40
2022-07-29T08:01:08.310Z,601.10
2022-07-29T08:03:37.737Z,605.83
2022-07-29T08:06:07.082Z,518.45
2022-07-29T08:08:35.498Z,506.17
2022-07-29T08:11:08.975Z,475.25
2022-07-29T08:13:39.663Z,451.50
2022-07-29T08:16:13.847Z,471.85
2022-07-29T08:18:44.607Z,487.13
2022-07-29T08:21:15.121Z,470.17
2022-07-29T08:23:57.727Z,491.83
2022-07-29T08:26:26.919Z,474.88
2022-07-29T08:28:54.956Z,504.83
2022-07-29T08:31:23.176Z,511.23
2022-07-29T08:33:52.605Z,574.00
2022-07-29T08:36:22.022Z,563.13
2022-07-29T08:38:50.624Z,562.30
2022-07-29T08:41:23.460Z,556.45
2022-07-29T08:43:52.043Z,594.95
2022-07-29T08:46:20.740Z,635.72
2022-07-29T08:48:49.220Z,662.05
2022-07-29T08:51:20.240Z,656.90
2022-07-29T08:53:49.672Z,620.35
2022-07-29T08:56:19.766Z,605.00
2022-07-29T08:58:52.074Z,613.17
2022-07-29T09:01:35.618Z,566.90
2022-07-29T09:04:12.000Z,548.90
2022-07-29T09:06:45.556Z,506.90
2022-07-29T09:09:14.677Z,492.80
2022-07-29T09:11:43.176Z,490.13
2022-07-29T09:14:13.305Z,517.35
2022-07-29T09:16:53.431Z,523.67
2022-07-29T09:19:26.262Z,498.92
2022-07-29T09:22:03.539Z,526.75
2022-07-29T09:24:49.429Z,547.40
2022-07-29T09:27:23.063Z,551.03
2022-07-29T09:29:59.184Z,603.53
2022-07-29T09:32:27.646Z,596.42
2022-07-29T09:35:16.376Z,576.38
2022-07-29T09:37:45.749Z,591.00
2022-07-29T09:40:16.999Z,615.80
2022-07-29T09:42:45.471Z,626.25
2022-07-29T09:45:14.318Z,594.50
2022-07-29T09:47:50.407Z,556.63
2022-07-29T09:50:20.533Z,574.75
2022-07-29T09:52:51.953Z,554.60
2022-07-29T09:55:21.129Z,546.55
2022-07-29T09:57:49.462Z,538.40
2022-07-29T10:00:19.942Z,553.28
2022-07-29T10:02:49.103Z,531.15
2022-07-29T10:05:22.711Z,522.90
2022-07-29T10:07:54.311Z,515.50
2022-07-29T10:10:26.567Z,478.65
2022-07-29T10:12:56.568Z,503.77
2022-07-29T10:15:25.835Z,490.90
2022-07-29T10:17:54.697Z,595.22
2022-07-29T10:20:23.161Z,526.67
2022-07-29T10:22:54.168Z,510.75
2022-07-29T10:25:24.104Z,391.40
2022-07-29T10:27:53.163Z,445.00
2022-07-29T10:30:22.440Z,512.33
2022-07-29T10:33:05.342Z,516.95
2022-07-29T10:35:47.523Z,452.75
2022-07-29T10:38:50.232Z,571.42
2022-07-29T10:41:47.696Z,586.42
2022-07-29T10:44:19.356Z,668.35
2022-07-29T10:46:51.653Z,720.38
2022-07-29T10:49:24.696Z,743.20
2022-07-29T10:52:01.831Z,734.03
2022-07-29T10:54:51.091Z,403.30
2022-07-29T10:57:52.496Z,351.13
2022-07-29T11:00:34.185Z,234.57
2022-07-29T11:03:04.742Z,306.77
2022-07-29T11:05:56.107Z,229.63
2022-07-29T11:08:28.201Z,264.17
2022-07-29T11:11:44.010Z,257.65
2022-07-29T11:14:26.396Z,367.85
2022-07-29T11:17:06.922Z,450.98
2022-07-29T11:19:36.312Z,379.27
2022-07-29T11:22:05.498Z,509.92
2022-07-29T11:24:35.470Z,315.85
2022-07-29T11:30:08.676Z,259.58
2022-07-29T11:32:40.014Z,253.00
2022-07-29T11:35:18.623Z,218.68
2022-07-29T11:37:52.170Z,253.13
2022-07-29T11:40:24.493Z,210.88
2022-07-29T11:42:53.848Z,285.25
2022-07-29T11:45:42.155Z,322.40
2022-07-29T11:48:27.932Z,364.83
2022-07-29T11:51:00.592Z,381.48
2022-07-29T11:53:28.991Z,363.02
2022-07-29T11:56:02.512Z,277.02
2022-07-29T11:58:31.787Z,205.05
2022-07-29T12:01:04.137Z,271.13
2022-07-29T12:03:36.448Z,213.57
2022-07-29T12:06:13.509Z,158.77
2022-07-29T12:08:43.607Z,197.05
2022-07-29T12:11:20.820Z,241.52
2022-07-29T12:13:50.214Z,260.17
2022-07-29T12:16:25.584Z,248.07
2022-07-29T12:18:59.269Z,156.82
2022-07-29T12:21:29.076Z,211.05
2022-07-29T12:24:03.414Z,186.15
2022-07-29T12:26:40.409Z,174.82
2022-07-29T12:29:15.430Z,149.35
2022-07-29T12:31:58.019Z,144.98
2022-07-29T12:34:30.536Z,216.32
2022-07-29T12:36:58.655Z,341.65
2022-07-29T12:39:28.785Z,458.35
2022-07-29T12:42:04.447Z,453.70
2022-07-29T12:44:47.543Z,429.95
2022-07-29T12:47:16.775Z,435.50
2022-07-29T12:49:44.923Z,403.67
2022-07-29T12:52:27.019Z,401.65
2022-07-29T12:54:55.037Z,377.05
2022-07-29T12:57:23.191Z,389.77
2022-07-29T13:00:11.577Z,414.92
2022-07-29T13:02:41.850Z,402.92
2022-07-29T13:05:11.045Z,407.02
2022-07-29T13:07:55.034Z,419.02
2022-07-29T13:10:25.157Z,397.25
2022-07-29T13:13:07.615Z,396.80
2022-07-29T13:15:35.937Z,360.30
2022-07-29T13:18:06.142Z,337.45
2022-07-29T13:20:34.349Z,276.13
2022-07-29T13:23:02.747Z,242.88
2022-07-29T13:25:32.689Z,240.43
2022-07-29T13:28:01.129Z,251.65
2022-07-29T13:30:34.342Z,228.88
2022-07-29T13:33:02.728Z,239.13
2022-07-29T13:35:31.809Z,241.68
2022-07-29T13:38:02.328Z,257.98
2022-07-29T13:40:31.265Z,271.63
2022-07-29T13:42:59.021Z,252.38
2022-07-29T13:45:29.095Z,251.30
2022-07-29T13:47:57.337Z,254.68
2022-07-29T13:50:28.144Z,263.42
2022-07-29T13:52:57.516Z,235.20
2022-07-29T13:55:31.505Z,236.40
2022-07-29T13:57:59.348Z,247.20
2022-07-29T14:00:32.258Z,257.38
2022-07-29T14:02:59.962Z,263.13
2022-07-29T14:05:28.009Z,287.67
2022-07-29T14:07:57.199Z,300.65
2022-07-29T14:10:25.239Z,302.52
2022-07-29T14:12:53.174Z,294.70
2022-07-29T14:15:21.301Z,314.67
2022-07-29T14:17:54.984Z,321.55
2022-07-29T14:20:22.884Z,287.30
2022-07-29T14:22:50.713Z,255.90
2022-07-29T14:25:23.582Z,245.07
2022-07-29T14:27:54.201Z,219.43
2022-07-29T14:30:23.939Z,223.57
2022-07-29T14:32:51.646Z,253.10
2022-07-29T14:35:19.387Z,255.88
2022-07-29T14:37:47.077Z,260.10
2022-07-29T14:40:14.725Z,270.30
2022-07-29T14:42:43.832Z,275.00
2022-07-29T14:45:12.469Z,253.35
2022-07-29T14:47:40.926Z,281.27
2022-07-29T14:50:09.682Z,291.75
2022-07-29T14:52:37.366Z,289.90
2022-07-29T14:55:19.449Z,297.48
2022-07-29T14:57:50.866Z,278.77
2022-07-29T15:00:19.688Z,287.85
2022-07-29T15:03:01.243Z,281.92
2022-07-29T15:05:29.858Z,260.30
2022-07-29T15:07:57.557Z,257.15
2022-07-29T15:10:27.127Z,274.58
2022-07-29T15:12:56.714Z,279.13
2022-07-29T15:15:24.793Z,263.35
2022-07-29T15:17:52.522Z,253.77
2022-07-29T15:20:20.623Z,246.60
2022-07-29T15:22:48.307Z,224.50
2022-07-29T15:25:16.287Z,221.93
2022-07-29T15:27:49.054Z,213.60
2022-07-29T15:30:30.990Z,196.57
2022-07-29T15:33:02.252Z,182.73
2022-07-29T15:35:30.161Z,185.95
2022-07-29T15:37:58.489Z,180.10
2022-07-29T15:40:26.209Z,178.32
2022-07-29T15:42:53.925Z,184.00
2022-07-29T15:45:23.223Z,184.50
2022-07-29T15:47:51.078Z,191.05
2022-07-29T15:50:20.312Z,469.23
2022-07-29T15:52:48.230Z,324.38
2022-07-29T15:55:16.793Z,112.63
2022-07-29T15:57:44.785Z,254.27
2022-07-29T16:00:13.685Z,195.52
2022-07-29T16:02:42.867Z,217.07
2022-07-29T16:05:12.853Z,173.23
2022-07-29T16:07:40.553Z,170.68
2022-07-29T16:10:09.403Z,317.90
2022-07-29T16:12:37.256Z,169.27
2022-07-29T16:15:14.139Z,167.43
2022-07-29T16:17:43.259Z,183.52
2022-07-29T16:20:13.896Z,203.70
2022-07-29T16:22:42.010Z,222.20
2022-07-29T16:25:11.037Z,269.52
2022-07-29T16:27:42.590Z,295.85
2022-07-29T16:30:13.856Z,244.85
2022-07-29T16:32:45.451Z,244.40
2022-07-29T16:35:13.195Z,222.95
2022-07-29T16:37:41.127Z,180.30
2022-07-29T16:40:11.341Z,150.30
2022-07-29T16:42:47.724Z,150.57
2022-07-29T16:45:16.138Z,120.88
2022-07-29T16:47:45.543Z,114.28
2022-07-29T16:50:14.014Z,115.35
2022-07-29T16:52:46.842Z,125.28
2022-07-29T16:55:14.721Z,174.23
2022-07-29T16:57:44.019Z,156.15
2022-07-29T17:00:12.963Z,163.40
2022-07-29T17:02:45.895Z,208.52
2022-07-29T17:05:16.301Z,238.68
2022-07-29T17:07:44.439Z,225.57
2022-07-29T17:10:14.060Z,189.10
2022-07-29T17:12:42.624Z,215.63
2022-07-29T17:15:13.535Z,210.50
2022-07-29T17:17:55.297Z,233.50
2022-07-29T17:20:26.903Z,242.52
2022-07-29T17:22:56.413Z,240.75
2022-07-29T17:25:24.473Z,245.80
2022-07-29T17:27:55.334Z,233.23
2022-07-29T17:30:25.415Z,226.85
2022-07-29T17:32:54.002Z,222.40
2022-07-29T17:35:39.803Z,204.13
2022-07-29T17:38:09.035Z,205.88
2022-07-29T17:40:36.790Z,191.38
2022-07-29T17:43:05.309Z,190.82
2022-07-29T17:45:49.052Z,202.35
2022-07-29T17:48:18.224Z,192.23
2022-07-29T17:50:47.016Z,180.18
2022-07-29T17:53:17.024Z,181.23
2022-07-29T17:55:46.400Z,153.10
2022-07-29T17:58:14.536Z,139.25
2022-07-29T18:00:43.100Z,126.10
2022-07-29T18:03:11.351Z,112.15
2022-07-29T18:05:39.139Z,96.53
2022-07-29T18:08:06.918Z,90.05
2022-07-29T18:10:36.456Z,82.22
2022-07-29T18:13:05.374Z,79.95
2022-07-29T18:15:33.356Z,78.32
2022-07-29T18:18:01.223Z,78.43
2022-07-29T18:20:29.817Z,76.85
2022-07-29T18:22:58.105Z,79.47
2022-07-29T18:25:26.673Z,76.55
2022-07-29T18:28:00.264Z,79.97
2022-07-29T18:30:29.184Z,76.00
2022-07-29T18:33:20.142Z,78.05
2022-07-29T18:35:49.389Z,77.30
2022-07-29T18:38:17.599Z,79.30
2022-07-29T18:40:49.429Z,74.65
2022-07-29T18:43:21.729Z,74.07
2022-07-29T18:45:51.066Z,76.28
2022-07-29T18:48:25.221Z,79.30
2022-07-29T18:50:53.247Z,74.40
2022-07-29T18:53:20.958Z,75.78
2022-07-29T18:55:48.721Z,76.28
2022-07-29T18:58:18.157Z,75.00
2022-07-29T19:00:45.871Z,75.10
2022-07-29T19:03:14.964Z,77.90
2022-07-29T19:05:43.070Z,74.88
2022-07-29T19:08:11.403Z,77.47
2022-07-29T19:10:39.355Z,77.03
2022-07-29T19:13:08.327Z,78.10
2022-07-29T19:15:37.694Z,74.97
2022-07-29T19:18:05.949Z,69.72
2022-07-29T19:20:34.075Z,69.68
2022-07-29T19:23:02.445Z,61.60
2022-07-29T19:25:30.300Z,49.72
2022-07-29T19:27:58.255Z,42.28
2022-07-29T19:30:25.967Z,33.33
2022-07-29T19:32:58.745Z,25.87
2022-07-29T19:35:31.179Z,17.90
2022-07-29T19:38:00.395Z,14.70
2022-07-29T19:40:29.529Z,14.33
2022-07-29T19:42:57.811Z,14.57
2022-07-29T19:45:26.378Z,14.93
2022-07-29T19:48:01.056Z,15.00
2022-07-29T19:50:29.818Z,14.35
2022-07-29T19:52:58.356Z,14.53
2022-07-29T19:55:26.513Z,12.47
2022-07-29T19:57:54.444Z,10.10
2022-07-29T20:00:23.854Z,9.07
2022-07-29T20:02:52.263Z,8.73
2022-07-29T20:05:28.199Z,8.43
2022-07-29T20:07:56.500Z,8.80
2022-07-29T20:10:24.364Z,8.23
2022-07-29T20:12:53.903Z,7.53
2022-07-29T20:15:23.391Z,7.75
2022-07-29T20:17:56.592Z,7.27
2022-07-29T20:20:26.850Z,7.80
2022-07-29T20:22:54.846Z,8.13
2022-07-29T20:25:23.082Z,7.90
2022-07-29T20:27:52.508Z,6.30
2022-07-29T20:30:21.321Z,8.30
2022-07-29T20:32:49.254Z,7.32
2022-07-29T20:35:17.161Z,7.10
2022-07-29T20:37:56.323Z,6.37
2022-07-29T20:40:25.244Z,7.28
2022-07-29T20:42:52.946Z,7.15
2022-07-29T20:45:20.997Z,7.57
2022-07-29T20:47:49.132Z,8.60
2022-07-29T20:50:16.942Z,11.10
2022-07-29T20:52:44.709Z,12.23
2022-07-29T20:55:13.810Z,15.37
2022-07-29T20:57:41.546Z,17.77
2022-07-29T21:00:10.043Z,19.33
2022-07-29T21:02:38.146Z,18.37
2022-07-29T21:05:06.538Z,19.77
2022-07-29T21:07:34.635Z,18.80
2022-07-29T21:10:02.268Z,16.63
2022-07-29T21:12:31.480Z,13.07
2022-07-29T21:14:59.302Z,18.23
2022-07-29T21:17:27.302Z,25.07
2022-07-29T21:19:55.578Z,24.03
2022-07-29T21:22:23.446Z,42.20
2022-07-29T21:24:51.830Z,391.97
2022-07-29T21:27:42.371Z,371.50
2022-07-29T21:30:12.017Z,339.77
2022-07-29T21:32:39.808Z,573.77
2022-07-29T21:35:15.160Z,516.67
2022-07-29T21:37:55.422Z,292.50
2022-07-29T21:40:23.107Z,179.00
2022-07-29T21:42:51.417Z,131.83
2022-07-29T21:45:20.534Z,152.70
2022-07-29T21:47:48.408Z,233.60
2022-07-29T21:50:16.175Z,627.40
2022-07-29T21:52:44.165Z,724.87
2022-07-29T21:55:14.037Z,999.90
2022-07-29T21:57:41.902Z,996.47
2022-07-29T22:00:15.958Z,999.90
2022-07-29T22:02:45.805Z,999.90
2022-07-29T22:05:15.295Z,999.90
2022-07-29T22:07:56.052Z,999.90
2022-07-29T22:10:25.329Z,999.90
2022-07-29T22:12:55.046Z,999.90
2022-07-29T22:15:23.791Z,936.83
2022-07-29T22:17:53.809Z,836.50
2022-07-29T22:20:28.224Z,999.90
2022-07-29T22:23:04.322Z,488.20
2022-07-29T22:25:32.774Z,859.97
2022-07-29T22:28:02.986Z,891.87
2022-07-29T22:30:31.300Z,833.13
2022-07-29T22:33:00.841Z,694.90
2022-07-29T22:35:28.565Z,856.83
2022-07-29T22:37:59.906Z,875.17
2022-07-29T22:40:30.887Z,753.07
2022-07-29T22:43:02.448Z,931.77
2022-07-29T22:45:32.521Z,968.80
2022-07-29T22:48:02.474Z,646.27
2022-07-29T22:50:31.119Z,749.83
2022-07-29T22:52:59.043Z,879.40
2022-07-29T22:55:27.281Z,887.43
2022-07-29T22:57:55.266Z,722.20
2022-07-29T23:00:24.272Z,895.30
2022-07-29T23:02:52.222Z,940.47
2022-07-29T23:05:21.756Z,872.30
2022-07-29T23:07:50.978Z,737.43
2022-07-29T23:10:19.035Z,904.57
2022-07-29T23:12:50.130Z,494.13
2022-07-29T23:15:18.345Z,978.57
2022-07-29T23:17:46.678Z,811.80
2022-07-29T23:20:14.998Z,589.73
2022-07-29T23:22:44.346Z,443.23
2022-07-29T23:25:12.209Z,884.10
2022-07-29T23:27:40.634Z,689.60
2022-07-29T23:30:09.764Z,616.63
2022-07-29T23:32:37.724Z,252.43
2022-07-29T23:35:07.285Z,579.90
2022-07-29T23:37:35.285Z,486.47
2022-07-29T23:40:05.149Z,606.13
2022-07-29T23:42:33.682Z,672.40
2022-07-29T23:45:01.640Z,551.87
2022-07-29T23:47:29.790Z,497.90
2022-07-29T23:49:57.717Z,564.60
2022-07-29T23:52:25.659Z,547.40
2022-07-29T23:54:53.704Z,535.17
2022-07-29T23:57:24.425Z,541.23
2022-07-29T23:59:52.852Z,463.93
